sensor_id;sensor_type;location;lat;lon;timestamp;temperature;humidity
36816;DHT22;22760;51.910;4.474;2022-09-03T00:00:07;19.90;89.10
36816;DHT22;22760;51.910;4.474;2022-09-03T00:02:38;19.80;89.80
36816;DHT22;22760;51.910;4.474;2022-09-03T00:05:13;19.80;90.10
36816;DHT22;22760;51.910;4.474;2022-09-03T00:07:46;19.80;89.80
36816;DHT22;22760;51.910;4.474;2022-09-03T00:10:21;19.70;89.50
36816;DHT22;22760;51.910;4.474;2022-09-03T00:12:51;19.70;89.80
36816;DHT22;22760;51.910;4.474;2022-09-03T00:15:21;19.80;89.70
36816;DHT22;22760;51.910;4.474;2022-09-03T00:17:51;19.70;89.80
36816;DHT22;22760;51.910;4.474;2022-09-03T00:20:21;19.70;89.40
36816;DHT22;22760;51.910;4.474;2022-09-03T00:22:52;19.70;89.50
36816;DHT22;22760;51.910;4.474;2022-09-03T00:25:24;19.70;89.80
36816;DHT22;22760;51.910;4.474;2022-09-03T00:27:54;19.70;90.00
36816;DHT22;22760;51.910;4.474;2022-09-03T00:30:23;19.60;90.10
36816;DHT22;22760;51.910;4.474;2022-09-03T00:32:53;19.60;90.00
36816;DHT22;22760;51.910;4.474;2022-09-03T00:35:25;19.60;90.20
36816;DHT22;22760;51.910;4.474;2022-09-03T00:37:53;19.50;90.20
36816;DHT22;22760;51.910;4.474;2022-09-03T00:40:46;19.50;90.20
36816;DHT22;22760;51.910;4.474;2022-09-03T00:43:22;19.50;90.30
36816;DHT22;22760;51.910;4.474;2022-09-03T00:45:55;19.50;90.30
36816;DHT22;22760;51.910;4.474;2022-09-03T00:48:25;19.50;90.40
36816;DHT22;22760;51.910;4.474;2022-09-03T00:51:05;19.50;90.60
36816;DHT22;22760;51.910;4.474;2022-09-03T00:53:38;19.50;90.60
36816;DHT22;22760;51.910;4.474;2022-09-03T00:56:16;19.50;90.70
36816;DHT22;22760;51.910;4.474;2022-09-03T00:58:56;19.50;90.50
36816;DHT22;22760;51.910;4.474;2022-09-03T01:01:33;19.50;91.00
36816;DHT22;22760;51.910;4.474;2022-09-03T01:04:34;19.40;90.90
36816;DHT22;22760;51.910;4.474;2022-09-03T01:07:12;19.40;90.90
36816;DHT22;22760;51.910;4.474;2022-09-03T01:09:50;19.40;90.90
36816;DHT22;22760;51.910;4.474;2022-09-03T01:12:30;19.40;91.00
36816;DHT22;22760;51.910;4.474;2022-09-03T01:15:06;19.40;91.10
36816;DHT22;22760;51.910;4.474;2022-09-03T01:17:50;19.30;91.30
36816;DHT22;22760;51.910;4.474;2022-09-03T01:20:34;19.30;91.10
36816;DHT22;22760;51.910;4.474;2022-09-03T01:26:20;19.30;91.00
36816;DHT22;22760;51.910;4.474;2022-09-03T01:29:00;19.20;91.20
36816;DHT22;22760;51.910;4.474;2022-09-03T01:31:35;19.30;91.30
36816;DHT22;22760;51.910;4.474;2022-09-03T01:34:12;19.20;91.50
36816;DHT22;22760;51.910;4.474;2022-09-03T01:36:47;19.30;91.50
36816;DHT22;22760;51.910;4.474;2022-09-03T01:39:24;19.30;91.60
36816;DHT22;22760;51.910;4.474;2022-09-03T01:41:59;19.30;92.00
36816;DHT22;22760;51.910;4.474;2022-09-03T01:44:55;19.10;91.40
36816;DHT22;22760;51.910;4.474;2022-09-03T01:47:34;19.10;91.60
36816;DHT22;22760;51.910;4.474;2022-09-03T01:50:07;19.10;91.40
36816;DHT22;22760;51.910;4.474;2022-09-03T01:52:41;19.10;91.60
36816;DHT22;22760;51.910;4.474;2022-09-03T01:55:22;19.00;91.60
36816;DHT22;22760;51.910;4.474;2022-09-03T01:57:53;19.00;91.80
36816;DHT22;22760;51.910;4.474;2022-09-03T02:00:24;18.90;91.70
36816;DHT22;22760;51.910;4.474;2022-09-03T02:02:52;19.00;92.10
36816;DHT22;22760;51.910;4.474;2022-09-03T02:05:21;18.90;91.60
36816;DHT22;22760;51.910;4.474;2022-09-03T02:07:56;18.90;91.60
36816;DHT22;22760;51.910;4.474;2022-09-03T02:10:26;18.90;91.80
36816;DHT22;22760;51.910;4.474;2022-09-03T02:12:58;18.80;91.80
36816;DHT22;22760;51.910;4.474;2022-09-03T02:15:27;18.80;91.70
36816;DHT22;22760;51.910;4.474;2022-09-03T02:18:00;18.80;91.70
36816;DHT22;22760;51.910;4.474;2022-09-03T02:20:29;18.80;91.90
36816;DHT22;22760;51.910;4.474;2022-09-03T02:22:57;18.80;91.80
36816;DHT22;22760;51.910;4.474;2022-09-03T02:25:29;18.70;92.00
36816;DHT22;22760;51.910;4.474;2022-09-03T02:27:58;18.60;92.30
36816;DHT22;22760;51.910;4.474;2022-09-03T02:30:27;18.60;92.40
36816;DHT22;22760;51.910;4.474;2022-09-03T02:32:54;18.50;92.20
36816;DHT22;22760;51.910;4.474;2022-09-03T02:35:21;18.50;92.40
36816;DHT22;22760;51.910;4.474;2022-09-03T02:37:48;18.50;92.40
36816;DHT22;22760;51.910;4.474;2022-09-03T02:40:15;18.50;92.70
36816;DHT22;22760;51.910;4.474;2022-09-03T02:42:43;18.40;92.70
36816;DHT22;22760;51.910;4.474;2022-09-03T02:45:19;18.40;93.10
36816;DHT22;22760;51.910;4.474;2022-09-03T02:47:51;18.40;93.30
36816;DHT22;22760;51.910;4.474;2022-09-03T02:50:20;18.30;93.00
36816;DHT22;22760;51.910;4.474;2022-09-03T02:52:47;18.30;93.20
36816;DHT22;22760;51.910;4.474;2022-09-03T02:55:14;18.20;93.20
36816;DHT22;22760;51.910;4.474;2022-09-03T02:57:41;18.20;93.40
36816;DHT22;22760;51.910;4.474;2022-09-03T03:00:09;18.10;93.50
36816;DHT22;22760;51.910;4.474;2022-09-03T03:02:35;18.10;93.70
36816;DHT22;22760;51.910;4.474;2022-09-03T03:05:04;18.20;93.90
36816;DHT22;22760;51.910;4.474;2022-09-03T03:07:36;18.00;93.60
36816;DHT22;22760;51.910;4.474;2022-09-03T03:10:04;18.00;93.70
36816;DHT22;22760;51.910;4.474;2022-09-03T03:12:31;18.00;93.60
36816;DHT22;22760;51.910;4.474;2022-09-03T03:14:59;18.00;93.80
36816;DHT22;22760;51.910;4.474;2022-09-03T03:17:26;18.00;93.50
36816;DHT22;22760;51.910;4.474;2022-09-03T03:19:53;18.10;93.50
36816;DHT22;22760;51.910;4.474;2022-09-03T03:22:21;18.00;93.50
36816;DHT22;22760;51.910;4.474;2022-09-03T03:24:48;18.00;93.30
36816;DHT22;22760;51.910;4.474;2022-09-03T03:27:15;18.00;93.40
36816;DHT22;22760;51.910;4.474;2022-09-03T03:29:43;17.90;93.20
36816;DHT22;22760;51.910;4.474;2022-09-03T03:32:10;17.90;93.50
36816;DHT22;22760;51.910;4.474;2022-09-03T03:34:37;17.90;93.80
36816;DHT22;22760;51.910;4.474;2022-09-03T03:37:04;17.90;93.90
36816;DHT22;22760;51.910;4.474;2022-09-03T03:39:32;17.80;93.80
36816;DHT22;22760;51.910;4.474;2022-09-03T03:41:59;17.80;93.70
36816;DHT22;22760;51.910;4.474;2022-09-03T03:44:26;17.80;93.70
36816;DHT22;22760;51.910;4.474;2022-09-03T03:46:54;17.80;94.10
36816;DHT22;22760;51.910;4.474;2022-09-03T03:49:21;17.80;94.00
36816;DHT22;22760;51.910;4.474;2022-09-03T03:51:47;17.80;93.60
36816;DHT22;22760;51.910;4.474;2022-09-03T03:54:14;17.80;93.60
36816;DHT22;22760;51.910;4.474;2022-09-03T03:56:42;17.80;93.70
36816;DHT22;22760;51.910;4.474;2022-09-03T03:59:09;17.80;94.10
36816;DHT22;22760;51.910;4.474;2022-09-03T04:01:36;17.80;93.80
36816;DHT22;22760;51.910;4.474;2022-09-03T04:04:03;17.80;94.00
36816;DHT22;22760;51.910;4.474;2022-09-03T04:06:30;17.80;93.90
36816;DHT22;22760;51.910;4.474;2022-09-03T04:08:56;17.80;94.00
36816;DHT22;22760;51.910;4.474;2022-09-03T04:11:24;17.70;93.70
36816;DHT22;22760;51.910;4.474;2022-09-03T04:13:53;17.70;94.00
36816;DHT22;22760;51.910;4.474;2022-09-03T04:16:21;17.60;94.00
36816;DHT22;22760;51.910;4.474;2022-09-03T04:18:49;17.60;94.20
36816;DHT22;22760;51.910;4.474;2022-09-03T04:21:17;17.60;94.10
36816;DHT22;22760;51.910;4.474;2022-09-03T04:23:46;17.70;94.10
36816;DHT22;22760;51.910;4.474;2022-09-03T04:26:14;17.60;94.40
36816;DHT22;22760;51.910;4.474;2022-09-03T04:28:42;17.60;94.30
36816;DHT22;22760;51.910;4.474;2022-09-03T04:31:13;17.60;94.50
36816;DHT22;22760;51.910;4.474;2022-09-03T04:33:41;17.50;94.50
36816;DHT22;22760;51.910;4.474;2022-09-03T04:36:09;17.50;94.50
36816;DHT22;22760;51.910;4.474;2022-09-03T04:38:38;17.50;94.80
36816;DHT22;22760;51.910;4.474;2022-09-03T04:41:09;17.50;95.10
36816;DHT22;22760;51.910;4.474;2022-09-03T04:43:36;17.50;94.80
36816;DHT22;22760;51.910;4.474;2022-09-03T04:46:05;17.50;94.80
36816;DHT22;22760;51.910;4.474;2022-09-03T04:48:35;17.40;95.00
36816;DHT22;22760;51.910;4.474;2022-09-03T04:51:03;17.30;94.90
36816;DHT22;22760;51.910;4.474;2022-09-03T04:53:32;17.40;95.00
36816;DHT22;22760;51.910;4.474;2022-09-03T04:55:58;17.40;95.00
36816;DHT22;22760;51.910;4.474;2022-09-03T04:58:25;17.40;94.90
36816;DHT22;22760;51.910;4.474;2022-09-03T05:00:52;17.30;95.20
36816;DHT22;22760;51.910;4.474;2022-09-03T05:03:19;17.30;95.30
36816;DHT22;22760;51.910;4.474;2022-09-03T05:05:53;17.30;95.10
36816;DHT22;22760;51.910;4.474;2022-09-03T05:08:20;17.30;94.90
36816;DHT22;22760;51.910;4.474;2022-09-03T05:10:47;17.30;94.70
36816;DHT22;22760;51.910;4.474;2022-09-03T05:13:14;17.40;95.00
36816;DHT22;22760;51.910;4.474;2022-09-03T05:15:41;17.40;95.10
36816;DHT22;22760;51.910;4.474;2022-09-03T05:18:10;17.40;95.00
36816;DHT22;22760;51.910;4.474;2022-09-03T05:20:36;17.40;95.00
36816;DHT22;22760;51.910;4.474;2022-09-03T05:23:05;17.40;95.10
36816;DHT22;22760;51.910;4.474;2022-09-03T05:25:32;17.30;95.10
36816;DHT22;22760;51.910;4.474;2022-09-03T05:27:59;17.40;95.30
36816;DHT22;22760;51.910;4.474;2022-09-03T05:30:27;17.30;95.50
36816;DHT22;22760;51.910;4.474;2022-09-03T05:32:55;17.30;95.30
36816;DHT22;22760;51.910;4.474;2022-09-03T05:35:22;17.40;95.00
36816;DHT22;22760;51.910;4.474;2022-09-03T05:37:48;17.40;95.10
36816;DHT22;22760;51.910;4.474;2022-09-03T05:40:17;17.40;95.50
36816;DHT22;22760;51.910;4.474;2022-09-03T05:42:43;17.40;95.10
36816;DHT22;22760;51.910;4.474;2022-09-03T05:45:10;17.50;95.40
36816;DHT22;22760;51.910;4.474;2022-09-03T05:47:38;17.40;95.40
36816;DHT22;22760;51.910;4.474;2022-09-03T05:50:06;17.40;95.70
36816;DHT22;22760;51.910;4.474;2022-09-03T05:52:35;17.40;95.60
36816;DHT22;22760;51.910;4.474;2022-09-03T05:55:02;17.50;95.60
36816;DHT22;22760;51.910;4.474;2022-09-03T05:57:30;17.40;95.60
36816;DHT22;22760;51.910;4.474;2022-09-03T05:59:57;17.50;95.40
36816;DHT22;22760;51.910;4.474;2022-09-03T06:02:24;17.50;95.60
36816;DHT22;22760;51.910;4.474;2022-09-03T06:04:51;17.40;95.50
36816;DHT22;22760;51.910;4.474;2022-09-03T06:07:19;17.50;95.60
36816;DHT22;22760;51.910;4.474;2022-09-03T06:09:45;17.50;95.60
36816;DHT22;22760;51.910;4.474;2022-09-03T06:12:12;17.60;95.40
36816;DHT22;22760;51.910;4.474;2022-09-03T06:14:40;17.70;95.10
36816;DHT22;22760;51.910;4.474;2022-09-03T06:17:07;17.70;95.10
36816;DHT22;22760;51.910;4.474;2022-09-03T06:19:35;17.80;95.00
36816;DHT22;22760;51.910;4.474;2022-09-03T06:22:02;17.90;94.90
36816;DHT22;22760;51.910;4.474;2022-09-03T06:24:29;17.90;94.80
36816;DHT22;22760;51.910;4.474;2022-09-03T06:26:56;18.00;94.60
36816;DHT22;22760;51.910;4.474;2022-09-03T06:29:23;18.10;94.90
36816;DHT22;22760;51.910;4.474;2022-09-03T06:31:52;18.10;94.70
36816;DHT22;22760;51.910;4.474;2022-09-03T06:34:20;18.10;94.20
36816;DHT22;22760;51.910;4.474;2022-09-03T06:36:50;18.20;94.30
36816;DHT22;22760;51.910;4.474;2022-09-03T06:39:17;18.40;94.30
36816;DHT22;22760;51.910;4.474;2022-09-03T06:41:44;18.40;94.10
36816;DHT22;22760;51.910;4.474;2022-09-03T06:44:16;18.50;93.90
36816;DHT22;22760;51.910;4.474;2022-09-03T06:46:43;18.60;94.10
36816;DHT22;22760;51.910;4.474;2022-09-03T06:49:12;18.60;94.00
36816;DHT22;22760;51.910;4.474;2022-09-03T06:51:39;18.70;93.90
36816;DHT22;22760;51.910;4.474;2022-09-03T06:54:09;18.80;93.70
36816;DHT22;22760;51.910;4.474;2022-09-03T06:56:37;19.00;93.70
36816;DHT22;22760;51.910;4.474;2022-09-03T06:59:06;19.10;93.40
36816;DHT22;22760;51.910;4.474;2022-09-03T07:01:34;19.30;93.00
36816;DHT22;22760;51.910;4.474;2022-09-03T07:04:02;19.40;93.30
36816;DHT22;22760;51.910;4.474;2022-09-03T07:06:32;19.50;93.30
36816;DHT22;22760;51.910;4.474;2022-09-03T07:09:01;19.50;92.70
36816;DHT22;22760;51.910;4.474;2022-09-03T07:11:29;19.50;93.10
36816;DHT22;22760;51.910;4.474;2022-09-03T07:13:58;19.60;92.60
36816;DHT22;22760;51.910;4.474;2022-09-03T07:16:27;19.50;92.30
36816;DHT22;22760;51.910;4.474;2022-09-03T07:18:55;19.60;93.10
36816;DHT22;22760;51.910;4.474;2022-09-03T07:21:24;19.70;93.00
36816;DHT22;22760;51.910;4.474;2022-09-03T07:23:53;19.90;92.40
36816;DHT22;22760;51.910;4.474;2022-09-03T07:26:22;20.00;92.30
36816;DHT22;22760;51.910;4.474;2022-09-03T07:28:50;20.10;92.20
36816;DHT22;22760;51.910;4.474;2022-09-03T07:31:20;20.10;92.20
36816;DHT22;22760;51.910;4.474;2022-09-03T07:33:52;20.30;91.90
36816;DHT22;22760;51.910;4.474;2022-09-03T07:36:21;20.40;91.70
36816;DHT22;22760;51.910;4.474;2022-09-03T07:38:48;20.50;91.60
36816;DHT22;22760;51.910;4.474;2022-09-03T07:41:16;20.60;91.20
36816;DHT22;22760;51.910;4.474;2022-09-03T07:43:44;20.60;91.70
36816;DHT22;22760;51.910;4.474;2022-09-03T07:46:13;20.60;91.40
36816;DHT22;22760;51.910;4.474;2022-09-03T07:48:46;20.80;91.50
36816;DHT22;22760;51.910;4.474;2022-09-03T07:51:14;21.00;91.00
36816;DHT22;22760;51.910;4.474;2022-09-03T07:53:42;21.20;91.50
36816;DHT22;22760;51.910;4.474;2022-09-03T07:56:09;21.10;91.00
36816;DHT22;22760;51.910;4.474;2022-09-03T07:58:38;20.90;90.90
36816;DHT22;22760;51.910;4.474;2022-09-03T08:01:08;20.50;91.50
36816;DHT22;22760;51.910;4.474;2022-09-03T08:03:35;20.40;91.60
36816;DHT22;22760;51.910;4.474;2022-09-03T08:06:04;20.30;91.60
36816;DHT22;22760;51.910;4.474;2022-09-03T08:08:33;20.40;92.40
36816;DHT22;22760;51.910;4.474;2022-09-03T08:11:05;20.40;92.50
36816;DHT22;22760;51.910;4.474;2022-09-03T08:13:36;20.50;92.80
36816;DHT22;22760;51.910;4.474;2022-09-03T08:16:04;20.50;92.60
36816;DHT22;22760;51.910;4.474;2022-09-03T08:18:31;20.70;92.40
36816;DHT22;22760;51.910;4.474;2022-09-03T08:21:03;20.90;92.20
36816;DHT22;22760;51.910;4.474;2022-09-03T08:23:32;21.00;92.00
36816;DHT22;22760;51.910;4.474;2022-09-03T08:25:59;21.30;91.50
36816;DHT22;22760;51.910;4.474;2022-09-03T08:28:26;21.60;91.10
36816;DHT22;22760;51.910;4.474;2022-09-03T08:30:53;21.70;91.00
36816;DHT22;22760;51.910;4.474;2022-09-03T08:33:22;21.90;90.50
36816;DHT22;22760;51.910;4.474;2022-09-03T08:36:03;21.80;90.60
36816;DHT22;22760;51.910;4.474;2022-09-03T08:38:31;22.00;90.90
36816;DHT22;22760;51.910;4.474;2022-09-03T08:41:05;22.20;90.70
36816;DHT22;22760;51.910;4.474;2022-09-03T08:43:42;22.20;91.20
36816;DHT22;22760;51.910;4.474;2022-09-03T08:46:14;22.40;90.50
36816;DHT22;22760;51.910;4.474;2022-09-03T08:48:43;22.60;90.40
36816;DHT22;22760;51.910;4.474;2022-09-03T08:51:13;22.50;90.30
36816;DHT22;22760;51.910;4.474;2022-09-03T08:53:44;22.70;90.70
36816;DHT22;22760;51.910;4.474;2022-09-03T08:56:17;22.70;90.40
36816;DHT22;22760;51.910;4.474;2022-09-03T08:58:46;22.50;90.30
36816;DHT22;22760;51.910;4.474;2022-09-03T09:01:18;22.80;90.10
36816;DHT22;22760;51.910;4.474;2022-09-03T09:03:56;23.10;89.20
36816;DHT22;22760;51.910;4.474;2022-09-03T09:06:34;23.40;88.60
36816;DHT22;22760;51.910;4.474;2022-09-03T09:09:10;23.50;89.50
36816;DHT22;22760;51.910;4.474;2022-09-03T09:11:56;23.40;89.20
36816;DHT22;22760;51.910;4.474;2022-09-03T09:14:30;23.60;90.50
36816;DHT22;22760;51.910;4.474;2022-09-03T09:17:08;23.80;89.00
36816;DHT22;22760;51.910;4.474;2022-09-03T09:19:44;23.70;89.00
36816;DHT22;22760;51.910;4.474;2022-09-03T09:22:21;23.90;90.00
36816;DHT22;22760;51.910;4.474;2022-09-03T09:24:53;23.90;88.00
36816;DHT22;22760;51.910;4.474;2022-09-03T09:27:23;24.00;88.50
36816;DHT22;22760;51.910;4.474;2022-09-03T09:29:52;24.10;87.20
36816;DHT22;22760;51.910;4.474;2022-09-03T09:32:19;24.10;87.60
36816;DHT22;22760;51.910;4.474;2022-09-03T09:34:47;24.20;87.70
36816;DHT22;22760;51.910;4.474;2022-09-03T09:37:15;24.50;88.30
36816;DHT22;22760;51.910;4.474;2022-09-03T09:39:54;24.50;85.80
36816;DHT22;22760;51.910;4.474;2022-09-03T09:42:22;24.60;86.60
36816;DHT22;22760;51.910;4.474;2022-09-03T09:44:49;24.60;85.70
36816;DHT22;22760;51.910;4.474;2022-09-03T09:47:21;24.80;87.00
36816;DHT22;22760;51.910;4.474;2022-09-03T09:49:53;24.90;87.00
36816;DHT22;22760;51.910;4.474;2022-09-03T09:52:21;24.80;87.50
36816;DHT22;22760;51.910;4.474;2022-09-03T09:54:51;24.50;87.70
36816;DHT22;22760;51.910;4.474;2022-09-03T09:57:22;24.70;86.80
36816;DHT22;22760;51.910;4.474;2022-09-03T10:00:00;25.10;88.00
36816;DHT22;22760;51.910;4.474;2022-09-03T10:02:28;24.60;86.30
36816;DHT22;22760;51.910;4.474;2022-09-03T10:05:00;24.70;86.90
36816;DHT22;22760;51.910;4.474;2022-09-03T10:07:37;24.90;88.40
36816;DHT22;22760;51.910;4.474;2022-09-03T10:10:06;25.10;87.30
36816;DHT22;22760;51.910;4.474;2022-09-03T10:12:38;25.10;86.40
36816;DHT22;22760;51.910;4.474;2022-09-03T10:15:14;25.30;86.70
36816;DHT22;22760;51.910;4.474;2022-09-03T10:17:52;25.20;86.40
36816;DHT22;22760;51.910;4.474;2022-09-03T10:20:27;25.70;86.00
36816;DHT22;22760;51.910;4.474;2022-09-03T10:23:04;26.00;86.30
36816;DHT22;22760;51.910;4.474;2022-09-03T10:25:42;25.70;85.20
36816;DHT22;22760;51.910;4.474;2022-09-03T10:28:14;25.90;85.30
36816;DHT22;22760;51.910;4.474;2022-09-03T10:31:03;25.80;86.40
36816;DHT22;22760;51.910;4.474;2022-09-03T10:33:36;25.90;85.70
36816;DHT22;22760;51.910;4.474;2022-09-03T10:36:09;25.90;85.70
36816;DHT22;22760;51.910;4.474;2022-09-03T10:38:39;25.90;85.90
36816;DHT22;22760;51.910;4.474;2022-09-03T10:41:18;26.10;86.30
36816;DHT22;22760;51.910;4.474;2022-09-03T10:44:05;26.20;86.00
36816;DHT22;22760;51.910;4.474;2022-09-03T10:46:45;26.00;84.50
36816;DHT22;22760;51.910;4.474;2022-09-03T10:49:30;26.10;85.20
36816;DHT22;22760;51.910;4.474;2022-09-03T10:52:08;26.60;85.10
36816;DHT22;22760;51.910;4.474;2022-09-03T10:54:50;26.70;85.00
36816;DHT22;22760;51.910;4.474;2022-09-03T10:57:30;26.70;84.40
36816;DHT22;22760;51.910;4.474;2022-09-03T11:00:07;26.30;82.80
36816;DHT22;22760;51.910;4.474;2022-09-03T11:05:57;26.10;83.50
36816;DHT22;22760;51.910;4.474;2022-09-03T11:08:29;26.10;82.90
36816;DHT22;22760;51.910;4.474;2022-09-03T11:11:07;26.30;83.40
36816;DHT22;22760;51.910;4.474;2022-09-03T11:13:39;25.90;81.40
36816;DHT22;22760;51.910;4.474;2022-09-03T11:16:14;26.10;82.40
36816;DHT22;22760;51.910;4.474;2022-09-03T11:18:47;26.10;83.00
36816;DHT22;22760;51.910;4.474;2022-09-03T11:21:17;26.30;81.10
36816;DHT22;22760;51.910;4.474;2022-09-03T11:23:52;26.30;82.40
36816;DHT22;22760;51.910;4.474;2022-09-03T11:26:25;26.20;82.00
36816;DHT22;22760;51.910;4.474;2022-09-03T11:28:56;26.30;81.90
36816;DHT22;22760;51.910;4.474;2022-09-03T11:31:32;26.30;82.70
36816;DHT22;22760;51.910;4.474;2022-09-03T11:34:06;26.50;82.40
36816;DHT22;22760;51.910;4.474;2022-09-03T11:36:36;26.70;80.70
36816;DHT22;22760;51.910;4.474;2022-09-03T11:39:17;26.90;79.70
36816;DHT22;22760;51.910;4.474;2022-09-03T11:41:56;26.90;80.40
36816;DHT22;22760;51.910;4.474;2022-09-03T11:44:23;26.90;80.00
36816;DHT22;22760;51.910;4.474;2022-09-03T11:47:14;27.00;79.80
36816;DHT22;22760;51.910;4.474;2022-09-03T11:49:45;27.30;80.90
36816;DHT22;22760;51.910;4.474;2022-09-03T11:52:25;27.30;79.00
36816;DHT22;22760;51.910;4.474;2022-09-03T11:54:54;27.10;79.20
36816;DHT22;22760;51.910;4.474;2022-09-03T11:57:24;27.00;79.80
36816;DHT22;22760;51.910;4.474;2022-09-03T11:59:53;27.00;79.40
36816;DHT22;22760;51.910;4.474;2022-09-03T12:02:25;27.20;81.10
36816;DHT22;22760;51.910;4.474;2022-09-03T12:10:50;27.20;79.30
36816;DHT22;22760;51.910;4.474;2022-09-03T12:13:28;27.50;80.40
36816;DHT22;22760;51.910;4.474;2022-09-03T12:19:05;27.50;79.90
36816;DHT22;22760;51.910;4.474;2022-09-03T12:21:37;27.30;80.10
36816;DHT22;22760;51.910;4.474;2022-09-03T12:24:07;27.60;80.30
36816;DHT22;22760;51.910;4.474;2022-09-03T12:26:41;27.60;79.70
36816;DHT22;22760;51.910;4.474;2022-09-03T12:29:21;27.60;80.90
36816;DHT22;22760;51.910;4.474;2022-09-03T12:31:49;28.00;80.10
36816;DHT22;22760;51.910;4.474;2022-09-03T12:34:17;28.10;81.00
36816;DHT22;22760;51.910;4.474;2022-09-03T12:36:47;28.30;80.50
36816;DHT22;22760;51.910;4.474;2022-09-03T12:39:15;27.80;78.70
36816;DHT22;22760;51.910;4.474;2022-09-03T12:41:57;27.90;78.90
36816;DHT22;22760;51.910;4.474;2022-09-03T12:44:28;27.80;78.80
36816;DHT22;22760;51.910;4.474;2022-09-03T12:47:04;28.00;79.90
36816;DHT22;22760;51.910;4.474;2022-09-03T12:49:36;28.10;79.60
36816;DHT22;22760;51.910;4.474;2022-09-03T12:52:08;28.40;79.80
36816;DHT22;22760;51.910;4.474;2022-09-03T12:54:39;28.50;79.20
36816;DHT22;22760;51.910;4.474;2022-09-03T12:57:10;28.50;81.40
36816;DHT22;22760;51.910;4.474;2022-09-03T12:59:38;28.30;80.40
36816;DHT22;22760;51.910;4.474;2022-09-03T13:02:14;28.50;79.60
36816;DHT22;22760;51.910;4.474;2022-09-03T13:04:44;28.50;78.80
36816;DHT22;22760;51.910;4.474;2022-09-03T13:07:18;28.50;79.40
36816;DHT22;22760;51.910;4.474;2022-09-03T13:09:47;28.40;78.60
36816;DHT22;22760;51.910;4.474;2022-09-03T13:12:27;28.20;77.30
36816;DHT22;22760;51.910;4.474;2022-09-03T13:14:54;28.30;77.60
36816;DHT22;22760;51.910;4.474;2022-09-03T13:17:46;28.50;76.90
36816;DHT22;22760;51.910;4.474;2022-09-03T13:20:28;28.30;77.70
36816;DHT22;22760;51.910;4.474;2022-09-03T13:23:12;28.30;78.70
36816;DHT22;22760;51.910;4.474;2022-09-03T13:25:47;28.30;77.90
36816;DHT22;22760;51.910;4.474;2022-09-03T13:28:28;27.90;77.70
36816;DHT22;22760;51.910;4.474;2022-09-03T13:31:03;27.90;78.50
36816;DHT22;22760;51.910;4.474;2022-09-03T13:33:37;28.10;78.20
36816;DHT22;22760;51.910;4.474;2022-09-03T13:36:12;28.30;77.90
36816;DHT22;22760;51.910;4.474;2022-09-03T13:38:45;28.00;77.90
36816;DHT22;22760;51.910;4.474;2022-09-03T13:41:17;28.20;79.40
36816;DHT22;22760;51.910;4.474;2022-09-03T13:43:56;28.10;78.20
36816;DHT22;22760;51.910;4.474;2022-09-03T13:46:27;27.90;78.50
36816;DHT22;22760;51.910;4.474;2022-09-03T13:49:08;27.60;79.50
36816;DHT22;22760;51.910;4.474;2022-09-03T13:51:59;27.70;78.70
36816;DHT22;22760;51.910;4.474;2022-09-03T13:54:30;27.70;78.40
36816;DHT22;22760;51.910;4.474;2022-09-03T13:57:03;27.80;78.40
36816;DHT22;22760;51.910;4.474;2022-09-03T13:59:35;27.90;77.10
36816;DHT22;22760;51.910;4.474;2022-09-03T14:02:14;28.00;78.00
36816;DHT22;22760;51.910;4.474;2022-09-03T14:04:51;27.90;76.70
36816;DHT22;22760;51.910;4.474;2022-09-03T14:07:24;27.80;76.50
36816;DHT22;22760;51.910;4.474;2022-09-03T14:09:57;27.80;76.60
36816;DHT22;22760;51.910;4.474;2022-09-03T14:12:34;28.20;77.70
36816;DHT22;22760;51.910;4.474;2022-09-03T14:15:09;28.10;76.70
36816;DHT22;22760;51.910;4.474;2022-09-03T14:17:40;27.90;77.00
36816;DHT22;22760;51.910;4.474;2022-09-03T14:20:12;27.80;77.20
36816;DHT22;22760;51.910;4.474;2022-09-03T14:22:49;28.20;77.50
36816;DHT22;22760;51.910;4.474;2022-09-03T14:25:19;28.30;78.20
36816;DHT22;22760;51.910;4.474;2022-09-03T14:27:47;27.90;76.40
36816;DHT22;22760;51.910;4.474;2022-09-03T14:30:29;27.80;78.00
36816;DHT22;22760;51.910;4.474;2022-09-03T14:33:07;27.80;77.50
36816;DHT22;22760;51.910;4.474;2022-09-03T14:35:52;27.70;77.70
36816;DHT22;22760;51.910;4.474;2022-09-03T14:38:29;27.80;77.20
36816;DHT22;22760;51.910;4.474;2022-09-03T14:41:04;27.80;77.20
36816;DHT22;22760;51.910;4.474;2022-09-03T14:43:51;27.90;79.80
36816;DHT22;22760;51.910;4.474;2022-09-03T14:46:36;27.80;77.90
36816;DHT22;22760;51.910;4.474;2022-09-03T14:49:18;28.00;80.50
36816;DHT22;22760;51.910;4.474;2022-09-03T14:52:02;27.90;79.20
36816;DHT22;22760;51.910;4.474;2022-09-03T14:54:46;27.90;78.80
36816;DHT22;22760;51.910;4.474;2022-09-03T14:57:30;27.80;78.90
36816;DHT22;22760;51.910;4.474;2022-09-03T15:00:06;27.90;77.60
36816;DHT22;22760;51.910;4.474;2022-09-03T15:03:00;27.80;78.70
36816;DHT22;22760;51.910;4.474;2022-09-03T15:08:49;27.80;78.80
36816;DHT22;22760;51.910;4.474;2022-09-03T15:11:21;27.90;77.60
36816;DHT22;22760;51.910;4.474;2022-09-03T15:13:53;27.80;77.70
36816;DHT22;22760;51.910;4.474;2022-09-03T15:16:33;27.80;77.00
36816;DHT22;22760;51.910;4.474;2022-09-03T15:19:10;27.80;77.20
36816;DHT22;22760;51.910;4.474;2022-09-03T15:21:52;27.70;77.40
36816;DHT22;22760;51.910;4.474;2022-09-03T15:24:34;27.60;77.90
36816;DHT22;22760;51.910;4.474;2022-09-03T15:27:11;27.40;78.70
36816;DHT22;22760;51.910;4.474;2022-09-03T15:29:51;27.50;77.30
36816;DHT22;22760;51.910;4.474;2022-09-03T15:32:29;27.50;78.00
36816;DHT22;22760;51.910;4.474;2022-09-03T15:35:04;27.30;78.20
36816;DHT22;22760;51.910;4.474;2022-09-03T15:37:38;27.20;79.70
36816;DHT22;22760;51.910;4.474;2022-09-03T15:40:14;27.10;79.20
36816;DHT22;22760;51.910;4.474;2022-09-03T15:42:45;27.10;79.30
36816;DHT22;22760;51.910;4.474;2022-09-03T15:45:20;27.20;79.20
36816;DHT22;22760;51.910;4.474;2022-09-03T15:47:53;27.40;79.30
36816;DHT22;22760;51.910;4.474;2022-09-03T15:50:31;27.60;78.40
36816;DHT22;22760;51.910;4.474;2022-09-03T15:53:02;27.90;77.50
36816;DHT22;22760;51.910;4.474;2022-09-03T15:55:31;27.80;77.00
36816;DHT22;22760;51.910;4.474;2022-09-03T15:58:07;27.80;77.10
36816;DHT22;22760;51.910;4.474;2022-09-03T16:00:52;27.60;76.80
36816;DHT22;22760;51.910;4.474;2022-09-03T16:03:33;27.40;77.90
36816;DHT22;22760;51.910;4.474;2022-09-03T16:06:27;27.20;77.90
36816;DHT22;22760;51.910;4.474;2022-09-03T16:09:07;27.20;79.80
36816;DHT22;22760;51.910;4.474;2022-09-03T16:11:39;26.90;81.10
36816;DHT22;22760;51.910;4.474;2022-09-03T16:14:14;26.80;80.80
36816;DHT22;22760;51.910;4.474;2022-09-03T16:16:53;26.60;80.60
36816;DHT22;22760;51.910;4.474;2022-09-03T16:19:26;26.40;79.80